sensor_id;sensor_type;location;lat;lon;timestamp;temperature;humidity
14727;DHT22;7454;51.256;8.176;2022-09-16T00:00:00;12.90;70.20
14727;DHT22;7454;51.256;8.176;2022-09-16T00:02:26;12.90;70.10
14727;DHT22;7454;51.256;8.176;2022-09-16T00:04:52;12.90;70.10
14727;DHT22;7454;51.256;8.176;2022-09-16T00:07:18;13.00;70.20
14727;DHT22;7454;51.256;8.176;2022-09-16T00:09:44;13.00;70.00
14727;DHT22;7454;51.256;8.176;2022-09-16T00:12:10;12.90;70.10
14727;DHT22;7454;51.256;8.176;2022-09-16T00:14:36;12.90;70.10
14727;DHT22;7454;51.256;8.176;2022-09-16T00:17:02;12.90;70.10
14727;DHT22;7454;51.256;8.176;2022-09-16T00:19:27;12.90;70.00
14727;DHT22;7454;51.256;8.176;2022-09-16T00:21:53;12.90;70.00
14727;DHT22;7454;51.256;8.176;2022-09-16T00:24:19;12.90;70.10
14727;DHT22;7454;51.256;8.176;2022-09-16T00:26:44;12.80;70.00
14727;DHT22;7454;51.256;8.176;2022-09-16T00:29:10;12.80;69.90
14727;DHT22;7454;51.256;8.176;2022-09-16T00:31:36;12.70;69.80
14727;DHT22;7454;51.256;8.176;2022-09-16T00:34:02;12.70;69.90
14727;DHT22;7454;51.256;8.176;2022-09-16T00:36:28;12.80;69.80
14727;DHT22;7454;51.256;8.176;2022-09-16T00:38:54;12.70;69.90
14727;DHT22;7454;51.256;8.176;2022-09-16T00:41:23;12.70;69.90
14727;DHT22;7454;51.256;8.176;2022-09-16T00:43:55;12.70;69.80
14727;DHT22;7454;51.256;8.176;2022-09-16T00:48:54;12.70;69.90
14727;DHT22;7454;51.256;8.176;2022-09-16T00:51:21;12.70;69.90
14727;DHT22;7454;51.256;8.176;2022-09-16T00:53:50;12.70;69.90
14727;DHT22;7454;51.256;8.176;2022-09-16T00:56:21;12.70;69.90
14727;DHT22;7454;51.256;8.176;2022-09-16T00:59:23;12.70;69.90
14727;DHT22;7454;51.256;8.176;2022-09-16T01:01:44;12.70;69.90
14727;DHT22;7454;51.256;8.176;2022-09-16T01:04:15;12.70;70.00
14727;DHT22;7454;51.256;8.176;2022-09-16T01:06:43;12.70;69.90
14727;DHT22;7454;51.256;8.176;2022-09-16T01:09:08;12.70;70.00
14727;DHT22;7454;51.256;8.176;2022-09-16T01:11:34;12.80;69.90
14727;DHT22;7454;51.256;8.176;2022-09-16T01:14:00;12.70;69.80
14727;DHT22;7454;51.256;8.176;2022-09-16T01:17:07;12.70;69.80
14727;DHT22;7454;51.256;8.176;2022-09-16T01:22:31;12.70;69.80
14727;DHT22;7454;51.256;8.176;2022-09-16T01:27:57;12.70;69.80
14727;DHT22;7454;51.256;8.176;2022-09-16T01:34:18;12.70;69.90
14727;DHT22;7454;51.256;8.176;2022-09-16T01:36:29;12.70;69.80
14727;DHT22;7454;51.256;8.176;2022-09-16T01:44:25;12.60;70.00
14727;DHT22;7454;51.256;8.176;2022-09-16T01:49:33;12.50;70.10
14727;DHT22;7454;51.256;8.176;2022-09-16T01:52:12;12.50;70.10
14727;DHT22;7454;51.256;8.176;2022-09-16T01:55:09;12.50;70.00
14727;DHT22;7454;51.256;8.176;2022-09-16T01:57:45;12.50;70.10
14727;DHT22;7454;51.256;8.176;2022-09-16T02:00:42;12.50;70.10
14727;DHT22;7454;51.256;8.176;2022-09-16T02:03:10;12.50;70.10
14727;DHT22;7454;51.256;8.176;2022-09-16T02:05:49;12.50;70.10
14727;DHT22;7454;51.256;8.176;2022-09-16T02:09:00;12.50;70.10
14727;DHT22;7454;51.256;8.176;2022-09-16T02:11:09;12.50;70.10
14727;DHT22;7454;51.256;8.176;2022-09-16T02:13:40;12.50;70.10
14727;DHT22;7454;51.256;8.176;2022-09-16T02:16:12;12.40;70.10
14727;DHT22;7454;51.256;8.176;2022-09-16T02:18:54;12.50;70.20
14727;DHT22;7454;51.256;8.176;2022-09-16T02:21:22;12.40;70.20
14727;DHT22;7454;51.256;8.176;2022-09-16T02:23:50;12.40;70.30
14727;DHT22;7454;51.256;8.176;2022-09-16T02:26:29;12.30;70.20
14727;DHT22;7454;51.256;8.176;2022-09-16T02:28:59;12.40;70.30
14727;DHT22;7454;51.256;8.176;2022-09-16T02:31:26;12.40;70.30
14727;DHT22;7454;51.256;8.176;2022-09-16T02:34:02;12.40;70.30
14727;DHT22;7454;51.256;8.176;2022-09-16T02:36:30;12.40;70.20
14727;DHT22;7454;51.256;8.176;2022-09-16T02:38:59;12.40;70.30
14727;DHT22;7454;51.256;8.176;2022-09-16T02:41:28;12.40;70.20
14727;DHT22;7454;51.256;8.176;2022-09-16T02:43:54;12.40;70.20
14727;DHT22;7454;51.256;8.176;2022-09-16T02:54:35;12.30;70.10
14727;DHT22;7454;51.256;8.176;2022-09-16T02:57:06;12.30;70.10
14727;DHT22;7454;51.256;8.176;2022-09-16T02:59:33;12.30;70.10
14727;DHT22;7454;51.256;8.176;2022-09-16T03:01:59;12.30;70.20
14727;DHT22;7454;51.256;8.176;2022-09-16T03:04:25;12.30;70.10
14727;DHT22;7454;51.256;8.176;2022-09-16T03:06:52;12.30;70.10
14727;DHT22;7454;51.256;8.176;2022-09-16T03:09:18;12.30;70.10
14727;DHT22;7454;51.256;8.176;2022-09-16T03:11:53;12.30;70.00
14727;DHT22;7454;51.256;8.176;2022-09-16T03:28:19;12.40;69.90
14727;DHT22;7454;51.256;8.176;2022-09-16T03:30:53;12.30;70.10
14727;DHT22;7454;51.256;8.176;2022-09-16T03:33:40;12.30;69.90
14727;DHT22;7454;51.256;8.176;2022-09-16T03:36:13;12.40;70.00
14727;DHT22;7454;51.256;8.176;2022-09-16T03:38:40;12.30;70.00
14727;DHT22;7454;51.256;8.176;2022-09-16T03:41:07;12.30;70.00
14727;DHT22;7454;51.256;8.176;2022-09-16T03:43:34;12.40;70.00
14727;DHT22;7454;51.256;8.176;2022-09-16T03:46:00;12.40;70.00
14727;DHT22;7454;51.256;8.176;2022-09-16T03:48:25;12.40;70.00
14727;DHT22;7454;51.256;8.176;2022-09-16T03:50:51;12.40;70.00
14727;DHT22;7454;51.256;8.176;2022-09-16T03:53:17;12.40;70.00
14727;DHT22;7454;51.256;8.176;2022-09-16T03:55:42;12.40;70.00
14727;DHT22;7454;51.256;8.176;2022-09-16T03:58:08;12.30;69.90
14727;DHT22;7454;51.256;8.176;2022-09-16T04:00:34;12.40;69.90
14727;DHT22;7454;51.256;8.176;2022-09-16T04:02:59;12.30;69.90
14727;DHT22;7454;51.256;8.176;2022-09-16T04:05:25;12.30;70.00
14727;DHT22;7454;51.256;8.176;2022-09-16T04:07:51;12.30;70.00
14727;DHT22;7454;51.256;8.176;2022-09-16T04:10:17;12.30;70.00
14727;DHT22;7454;51.256;8.176;2022-09-16T04:12:43;12.30;70.10
14727;DHT22;7454;51.256;8.176;2022-09-16T04:15:09;12.30;70.10
14727;DHT22;7454;51.256;8.176;2022-09-16T04:17:35;12.20;70.10
14727;DHT22;7454;51.256;8.176;2022-09-16T04:20:00;12.20;70.10
14727;DHT22;7454;51.256;8.176;2022-09-16T04:22:27;12.20;70.10
14727;DHT22;7454;51.256;8.176;2022-09-16T04:24:53;12.20;70.10
14727;DHT22;7454;51.256;8.176;2022-09-16T04:27:19;12.20;70.10
14727;DHT22;7454;51.256;8.176;2022-09-16T04:29:45;12.20;70.10
14727;DHT22;7454;51.256;8.176;2022-09-16T04:32:10;12.20;70.10
14727;DHT22;7454;51.256;8.176;2022-09-16T04:34:36;12.10;70.00
14727;DHT22;7454;51.256;8.176;2022-09-16T04:37:02;12.20;70.00
14727;DHT22;7454;51.256;8.176;2022-09-16T04:39:28;12.20;70.00
14727;DHT22;7454;51.256;8.176;2022-09-16T04:41:54;12.20;70.00
14727;DHT22;7454;51.256;8.176;2022-09-16T04:44:20;12.20;70.10
14727;DHT22;7454;51.256;8.176;2022-09-16T04:46:46;12.20;69.90
14727;DHT22;7454;51.256;8.176;2022-09-16T04:49:11;12.20;70.00
14727;DHT22;7454;51.256;8.176;2022-09-16T04:51:37;12.20;69.90
14727;DHT22;7454;51.256;8.176;2022-09-16T04:54:03;12.20;69.90
14727;DHT22;7454;51.256;8.176;2022-09-16T04:56:29;12.20;70.00
14727;DHT22;7454;51.256;8.176;2022-09-16T04:59:00;12.20;70.00
14727;DHT22;7454;51.256;8.176;2022-09-16T05:01:28;12.20;70.10
14727;DHT22;7454;51.256;8.176;2022-09-16T05:03:56;12.20;70.10
14727;DHT22;7454;51.256;8.176;2022-09-16T05:06:24;12.20;70.10
14727;DHT22;7454;51.256;8.176;2022-09-16T05:08:51;12.20;70.00
14727;DHT22;7454;51.256;8.176;2022-09-16T05:11:22;12.20;69.90
14727;DHT22;7454;51.256;8.176;2022-09-16T05:13:49;12.20;69.90
14727;DHT22;7454;51.256;8.176;2022-09-16T05:16:15;12.20;70.10
14727;DHT22;7454;51.256;8.176;2022-09-16T05:18:43;12.30;70.00
14727;DHT22;7454;51.256;8.176;2022-09-16T05:21:10;12.20;70.00
14727;DHT22;7454;51.256;8.176;2022-09-16T05:23:37;12.30;69.90
14727;DHT22;7454;51.256;8.176;2022-09-16T05:26:07;12.30;69.90
14727;DHT22;7454;51.256;8.176;2022-09-16T05:28:34;12.30;69.90
14727;DHT22;7454;51.256;8.176;2022-09-16T05:31:08;12.20;69.80
14727;DHT22;7454;51.256;8.176;2022-09-16T05:33:34;12.20;69.80
14727;DHT22;7454;51.256;8.176;2022-09-16T05:36:06;12.20;69.80
14727;DHT22;7454;51.256;8.176;2022-09-16T05:38:33;12.30;69.90
14727;DHT22;7454;51.256;8.176;2022-09-16T05:41:00;12.30;69.90
14727;DHT22;7454;51.256;8.176;2022-09-16T05:43:26;12.30;69.80
14727;DHT22;7454;51.256;8.176;2022-09-16T05:45:52;12.30;69.90
14727;DHT22;7454;51.256;8.176;2022-09-16T05:48:18;12.30;70.10
14727;DHT22;7454;51.256;8.176;2022-09-16T05:50:54;12.10;70.20
14727;DHT22;7454;51.256;8.176;2022-09-16T05:53:27;12.30;70.50
14727;DHT22;7454;51.256;8.176;2022-09-16T05:55:57;12.30;70.20
14727;DHT22;7454;51.256;8.176;2022-09-16T05:58:27;12.30;70.40
14727;DHT22;7454;51.256;8.176;2022-09-16T06:00:58;12.30;70.50
14727;DHT22;7454;51.256;8.176;2022-09-16T06:03:24;12.30;70.60
14727;DHT22;7454;51.256;8.176;2022-09-16T06:05:51;12.30;70.50
14727;DHT22;7454;51.256;8.176;2022-09-16T06:08:17;12.30;70.70
14727;DHT22;7454;51.256;8.176;2022-09-16T06:10:43;12.30;70.60
14727;DHT22;7454;51.256;8.176;2022-09-16T06:13:09;12.30;70.80
14727;DHT22;7454;51.256;8.176;2022-09-16T06:15:34;12.20;70.80
14727;DHT22;7454;51.256;8.176;2022-09-16T06:18:00;12.30;70.80
14727;DHT22;7454;51.256;8.176;2022-09-16T06:20:26;12.20;71.00
14727;DHT22;7454;51.256;8.176;2022-09-16T06:22:52;12.20;71.10
14727;DHT22;7454;51.256;8.176;2022-09-16T06:25:18;12.10;71.10
14727;DHT22;7454;51.256;8.176;2022-09-16T06:27:43;12.10;70.90
14727;DHT22;7454;51.256;8.176;2022-09-16T06:30:09;12.20;71.00
14727;DHT22;7454;51.256;8.176;2022-09-16T06:32:35;12.10;71.00
14727;DHT22;7454;51.256;8.176;2022-09-16T06:35:01;12.10;71.00
14727;DHT22;7454;51.256;8.176;2022-09-16T06:37:28;12.10;71.00
14727;DHT22;7454;51.256;8.176;2022-09-16T06:39:54;12.20;71.10
14727;DHT22;7454;51.256;8.176;2022-09-16T06:42:19;12.20;70.80
14727;DHT22;7454;51.256;8.176;2022-09-16T06:44:45;12.10;70.90
14727;DHT22;7454;51.256;8.176;2022-09-16T06:47:11;12.20;71.00
14727;DHT22;7454;51.256;8.176;2022-09-16T06:49:36;12.20;71.20
14727;DHT22;7454;51.256;8.176;2022-09-16T06:52:02;12.20;71.10
14727;DHT22;7454;51.256;8.176;2022-09-16T06:54:28;12.20;71.10
14727;DHT22;7454;51.256;8.176;2022-09-16T06:56:53;12.30;70.70
14727;DHT22;7454;51.256;8.176;2022-09-16T06:59:19;12.30;71.10
14727;DHT22;7454;51.256;8.176;2022-09-16T07:01:44;12.30;70.90
14727;DHT22;7454;51.256;8.176;2022-09-16T07:04:10;12.40;71.00
14727;DHT22;7454;51.256;8.176;2022-09-16T07:06:37;12.50;71.00
14727;DHT22;7454;51.256;8.176;2022-09-16T07:09:04;12.50;70.80
14727;DHT22;7454;51.256;8.176;2022-09-16T07:11:30;12.60;71.00
14727;DHT22;7454;51.256;8.176;2022-09-16T07:13:57;12.60;71.00
14727;DHT22;7454;51.256;8.176;2022-09-16T07:16:24;12.70;70.70
14727;DHT22;7454;51.256;8.176;2022-09-16T07:18:54;12.70;70.60
14727;DHT22;7454;51.256;8.176;2022-09-16T07:21:22;12.70;70.60
14727;DHT22;7454;51.256;8.176;2022-09-16T07:23:55;12.70;70.50
14727;DHT22;7454;51.256;8.176;2022-09-16T07:26:23;12.60;70.50
14727;DHT22;7454;51.256;8.176;2022-09-16T07:28:50;12.60;70.60
14727;DHT22;7454;51.256;8.176;2022-09-16T07:31:18;12.60;70.40
14727;DHT22;7454;51.256;8.176;2022-09-16T07:33:46;12.60;70.90
14727;DHT22;7454;51.256;8.176;2022-09-16T07:36:15;12.60;70.50
14727;DHT22;7454;51.256;8.176;2022-09-16T07:38:42;12.60;70.40
14727;DHT22;7454;51.256;8.176;2022-09-16T07:43:35;12.60;70.30
14727;DHT22;7454;51.256;8.176;2022-09-16T07:46:01;12.60;70.30
14727;DHT22;7454;51.256;8.176;2022-09-16T07:48:28;12.50;70.30
14727;DHT22;7454;51.256;8.176;2022-09-16T07:50:58;12.60;70.40
14727;DHT22;7454;51.256;8.176;2022-09-16T07:53:26;12.50;70.20
14727;DHT22;7454;51.256;8.176;2022-09-16T07:55:53;12.70;70.50
14727;DHT22;7454;51.256;8.176;2022-09-16T07:58:19;12.60;70.60
14727;DHT22;7454;51.256;8.176;2022-09-16T08:00:46;12.60;69.90
14727;DHT22;7454;51.256;8.176;2022-09-16T08:03:13;12.60;70.30
14727;DHT22;7454;51.256;8.176;2022-09-16T08:05:39;12.60;70.40
14727;DHT22;7454;51.256;8.176;2022-09-16T08:08:05;12.70;70.10
14727;DHT22;7454;51.256;8.176;2022-09-16T08:10:30;12.80;70.30
14727;DHT22;7454;51.256;8.176;2022-09-16T08:12:56;12.80;70.10
14727;DHT22;7454;51.256;8.176;2022-09-16T08:15:22;12.90;70.20
14727;DHT22;7454;51.256;8.176;2022-09-16T08:17:47;12.90;70.00
14727;DHT22;7454;51.256;8.176;2022-09-16T08:20:13;13.00;70.10
14727;DHT22;7454;51.256;8.176;2022-09-16T08:22:38;12.90;70.10
14727;DHT22;7454;51.256;8.176;2022-09-16T08:25:04;12.90;69.80
14727;DHT22;7454;51.256;8.176;2022-09-16T08:27:33;12.90;69.80
14727;DHT22;7454;51.256;8.176;2022-09-16T08:29:59;12.90;70.20
14727;DHT22;7454;51.256;8.176;2022-09-16T08:32:25;12.90;69.90
14727;DHT22;7454;51.256;8.176;2022-09-16T08:34:50;13.00;70.10
14727;DHT22;7454;51.256;8.176;2022-09-16T08:37:17;13.00;70.00
14727;DHT22;7454;51.256;8.176;2022-09-16T08:39:43;13.10;70.20
14727;DHT22;7454;51.256;8.176;2022-09-16T08:42:30;13.20;70.30
14727;DHT22;7454;51.256;8.176;2022-09-16T08:47:57;13.30;69.80
14727;DHT22;7454;51.256;8.176;2022-09-16T08:50:33;13.40;70.00
14727;DHT22;7454;51.256;8.176;2022-09-16T08:53:04;13.50;69.80
14727;DHT22;7454;51.256;8.176;2022-09-16T08:55:34;13.50;69.80
14727;DHT22;7454;51.256;8.176;2022-09-16T08:58:12;13.40;69.80
14727;DHT22;7454;51.256;8.176;2022-09-16T09:00:41;13.50;69.80
14727;DHT22;7454;51.256;8.176;2022-09-16T09:03:21;13.40;69.80
14727;DHT22;7454;51.256;8.176;2022-09-16T09:05:50;13.40;70.10
14727;DHT22;7454;51.256;8.176;2022-09-16T09:11:08;13.20;70.10
14727;DHT22;7454;51.256;8.176;2022-09-16T09:16:28;13.00;70.10
14727;DHT22;7454;51.256;8.176;2022-09-16T09:29:16;12.80;70.10
14727;DHT22;7454;51.256;8.176;2022-09-16T09:34:37;12.80;70.20
14727;DHT22;7454;51.256;8.176;2022-09-16T09:40:08;12.90;70.20
14727;DHT22;7454;51.256;8.176;2022-09-16T09:42:39;13.00;70.20
14727;DHT22;7454;51.256;8.176;2022-09-16T09:45:43;13.00;70.20
14727;DHT22;7454;51.256;8.176;2022-09-16T09:48:27;13.10;70.10
14727;DHT22;7454;51.256;8.176;2022-09-16T09:50:56;13.20;69.70
14727;DHT22;7454;51.256;8.176;2022-09-16T09:53:31;13.10;69.60
14727;DHT22;7454;51.256;8.176;2022-09-16T09:56:11;13.20;69.90
14727;DHT22;7454;51.256;8.176;2022-09-16T10:01:54;13.20;69.60
14727;DHT22;7454;51.256;8.176;2022-09-16T10:04:21;13.30;69.70
14727;DHT22;7454;51.256;8.176;2022-09-16T10:06:46;13.20;69.30
14727;DHT22;7454;51.256;8.176;2022-09-16T10:09:13;13.30;69.70
14727;DHT22;7454;51.256;8.176;2022-09-16T10:11:47;13.30;69.40
14727;DHT22;7454;51.256;8.176;2022-09-16T10:14:22;13.30;69.70
14727;DHT22;7454;51.256;8.176;2022-09-16T10:16:55;13.40;69.60
14727;DHT22;7454;51.256;8.176;2022-09-16T10:19:23;13.30;69.70
14727;DHT22;7454;51.256;8.176;2022-09-16T10:21:52;13.40;69.70
14727;DHT22;7454;51.256;8.176;2022-09-16T10:26:54;13.30;69.60
14727;DHT22;7454;51.256;8.176;2022-09-16T10:29:21;13.40;69.90
14727;DHT22;7454;51.256;8.176;2022-09-16T10:31:46;13.40;69.60
14727;DHT22;7454;51.256;8.176;2022-09-16T10:34:30;13.50;69.90
14727;DHT22;7454;51.256;8.176;2022-09-16T10:37:12;13.50;69.40
14727;DHT22;7454;51.256;8.176;2022-09-16T10:39:53;13.60;69.10
14727;DHT22;7454;51.256;8.176;2022-09-16T10:42:21;13.60;69.30
14727;DHT22;7454;51.256;8.176;2022-09-16T10:44:48;13.60;69.20
14727;DHT22;7454;51.256;8.176;2022-09-16T10:47:22;13.70;69.70
14727;DHT22;7454;51.256;8.176;2022-09-16T10:49:53;13.70;70.10
14727;DHT22;7454;51.256;8.176;2022-09-16T10:52:25;13.70;69.40
14727;DHT22;7454;51.256;8.176;2022-09-16T10:54:52;13.80;69.40
14727;DHT22;7454;51.256;8.176;2022-09-16T10:59:57;13.80;69.70
14727;DHT22;7454;51.256;8.176;2022-09-16T11:02:34;13.70;69.30
14727;DHT22;7454;51.256;8.176;2022-09-16T11:05:24;13.70;69.30
14727;DHT22;7454;51.256;8.176;2022-09-16T11:11:12;13.60;69.50
14727;DHT22;7454;51.256;8.176;2022-09-16T11:21:41;13.30;69.30
14727;DHT22;7454;51.256;8.176;2022-09-16T11:26:51;13.30;69.40
14727;DHT22;7454;51.256;8.176;2022-09-16T11:35:31;13.30;69.30
14727;DHT22;7454;51.256;8.176;2022-09-16T11:38:22;13.40;69.50
14727;DHT22;7454;51.256;8.176;2022-09-16T11:43:47;13.50;69.20
14727;DHT22;7454;51.256;8.176;2022-09-16T11:52:37;13.70;69.00
14727;DHT22;7454;51.256;8.176;2022-09-16T11:55:30;13.70;69.10
14727;DHT22;7454;51.256;8.176;2022-09-16T11:57:57;13.80;69.10
14727;DHT22;7454;51.256;8.176;2022-09-16T12:00:26;14.00;69.40
14727;DHT22;7454;51.256;8.176;2022-09-16T12:03:00;14.10;69.20
14727;DHT22;7454;51.256;8.176;2022-09-16T12:05:33;14.20;68.80
14727;DHT22;7454;51.256;8.176;2022-09-16T12:08:07;14.20;68.20
14727;DHT22;7454;51.256;8.176;2022-09-16T12:10:46;14.20;67.80
14727;DHT22;7454;51.256;8.176;2022-09-16T12:13:28;13.90;67.80
14727;DHT22;7454;51.256;8.176;2022-09-16T12:15:56;13.60;68.40
14727;DHT22;7454;51.256;8.176;2022-09-16T12:18:25;13.40;68.50
14727;DHT22;7454;51.256;8.176;2022-09-16T12:23:54;12.90;69.00
14727;DHT22;7454;51.256;8.176;2022-09-16T12:26:31;12.70;69.40
14727;DHT22;7454;51.256;8.176;2022-09-16T12:29:05;12.60;69.30
14727;DHT22;7454;51.256;8.176;2022-09-16T12:31:56;12.50;69.60
14727;DHT22;7454;51.256;8.176;2022-09-16T12:34:27;12.40;69.20
14727;DHT22;7454;51.256;8.176;2022-09-16T12:37:14;12.40;69.70
14727;DHT22;7454;51.256;8.176;2022-09-16T12:39:43;12.40;69.60
14727;DHT22;7454;51.256;8.176;2022-09-16T13:01:11;12.80;70.20
14727;DHT22;7454;51.256;8.176;2022-09-16T13:03:49;12.80;69.70
14727;DHT22;7454;51.256;8.176;2022-09-16T13:06:20;12.90;69.80
14727;DHT22;7454;51.256;8.176;2022-09-16T13:08:46;12.90;70.00
14727;DHT22;7454;51.256;8.176;2022-09-16T13:11:17;13.00;69.90
14727;DHT22;7454;51.256;8.176;2022-09-16T13:13:46;13.00;69.30
14727;DHT22;7454;51.256;8.176;2022-09-16T13:16:14;13.10;69.90
14727;DHT22;7454;51.256;8.176;2022-09-16T13:19:14;13.10;70.00
14727;DHT22;7454;51.256;8.176;2022-09-16T13:21:59;13.20;70.10
14727;DHT22;7454;51.256;8.176;2022-09-16T13:24:37;13.30;70.20
14727;DHT22;7454;51.256;8.176;2022-09-16T13:27:24;13.30;69.90
14727;DHT22;7454;51.256;8.176;2022-09-16T13:30:03;13.40;70.10
14727;DHT22;7454;51.256;8.176;2022-09-16T13:37:43;13.30;69.20
14727;DHT22;7454;51.256;8.176;2022-09-16T13:40:30;13.20;69.70
14727;DHT22;7454;51.256;8.176;2022-09-16T13:48:08;13.00;68.60
14727;DHT22;7454;51.256;8.176;2022-09-16T13:50:36;12.90;69.00
14727;DHT22;7454;51.256;8.176;2022-09-16T13:53:17;12.90;68.80
14727;DHT22;7454;51.256;8.176;2022-09-16T13:55:46;12.90;68.90
14727;DHT22;7454;51.256;8.176;2022-09-16T13:58:19;12.90;69.50
14727;DHT22;7454;51.256;8.176;2022-09-16T14:01:12;12.90;69.50
14727;DHT22;7454;51.256;8.176;2022-09-16T14:03:44;12.90;69.30
14727;DHT22;7454;51.256;8.176;2022-09-16T14:06:32;12.90;69.60
14727;DHT22;7454;51.256;8.176;2022-09-16T14:12:21;12.90;69.10
14727;DHT22;7454;51.256;8.176;2022-09-16T14:14:56;13.00;69.50
14727;DHT22;7454;51.256;8.176;2022-09-16T14:17:23;13.00;69.10
14727;DHT22;7454;51.256;8.176;2022-09-16T14:19:52;13.00;68.80
14727;DHT22;7454;51.256;8.176;2022-09-16T14:22:23;13.00;68.80
14727;DHT22;7454;51.256;8.176;2022-09-16T14:24:52;12.90;69.00
14727;DHT22;7454;51.256;8.176;2022-09-16T14:29:56;12.90;69.20
14727;DHT22;7454;51.256;8.176;2022-09-16T14:32:23;12.90;69.00
14727;DHT22;7454;51.256;8.176;2022-09-16T14:34:54;12.90;69.00
14727;DHT22;7454;51.256;8.176;2022-09-16T14:37:23;13.00;69.00
14727;DHT22;7454;51.256;8.176;2022-09-16T14:39:50;13.00;68.90
14727;DHT22;7454;51.256;8.176;2022-09-16T14:42:18;13.00;69.00
14727;DHT22;7454;51.256;8.176;2022-09-16T14:44:46;13.00;68.90
14727;DHT22;7454;51.256;8.176;2022-09-16T14:49:39;12.90;68.90
14727;DHT22;7454;51.256;8.176;2022-09-16T14:52:14;12.70;68.90
14727;DHT22;7454;51.256;8.176;2022-09-16T14:54:45;12.90;68.90
14727;DHT22;7454;51.256;8.176;2022-09-16T14:57:15;12.90;68.70
14727;DHT22;7454;51.256;8.176;2022-09-16T14:59:49;12.90;69.10
14727;DHT22;7454;51.256;8.176;2022-09-16T15:07:41;12.90;68.80
14727;DHT22;7454;51.256;8.176;2022-09-16T15:10:08;12.90;68.60
14727;DHT22;7454;51.256;8.176;2022-09-16T15:12:49;12.90;68.40
14727;DHT22;7454;51.256;8.176;2022-09-16T15:17:53;12.80;68.20
14727;DHT22;7454;51.256;8.176;2022-09-16T15:20:21;12.70;68.60
14727;DHT22;7454;51.256;8.176;2022-09-16T15:22:49;12.70;68.40
14727;DHT22;7454;51.256;8.176;2022-09-16T15:25:22;12.70;68.20
14727;DHT22;7454;51.256;8.176;2022-09-16T15:27:49;12.70;68.20
14727;DHT22;7454;51.256;8.176;2022-09-16T15:30:22;12.70;68.20
14727;DHT22;7454;51.256;8.176;2022-09-16T15:32:50;12.50;68.20
14727;DHT22;7454;51.256;8.176;2022-09-16T15:35:25;12.60;68.30
14727;DHT22;7454;51.256;8.176;2022-09-16T15:37:52;12.60;68.50
14727;DHT22;7454;51.256;8.176;2022-09-16T15:40:22;12.60;68.30
14727;DHT22;7454;51.256;8.176;2022-09-16T15:43:03;12.70;68.40
14727;DHT22;7454;51.256;8.176;2022-09-16T15:45:35;12.60;68.30
14727;DHT22;7454;51.256;8.176;2022-09-16T15:48:08;12.70;68.10
14727;DHT22;7454;51.256;8.176;2022-09-16T15:50:51;12.70;68.30
14727;DHT22;7454;51.256;8.176;2022-09-16T15:53:21;12.70;68.10
14727;DHT22;7454;51.256;8.176;2022-09-16T15:56:00;12.80;68.40
14727;DHT22;7454;51.256;8.176;2022-09-16T16:06:20;12.80;68.20
14727;DHT22;7454;51.256;8.176;2022-09-16T16:09:33;12.80;68.40
14727;DHT22;7454;51.256;8.176;2022-09-16T16:12:03;12.90;68.40
14727;DHT22;7454;51.256;8.176;2022-09-16T16:14:31;12.90;68.50
14727;DHT22;7454;51.256;8.176;2022-09-16T16:17:01;12.80;68.40
14727;DHT22;7454;51.256;8.176;2022-09-16T16:19:39;12.90;68.30
14727;DHT22;7454;51.256;8.176;2022-09-16T16:22:06;12.90;68.50
14727;DHT22;7454;51.256;8.176;2022-09-16T16:24:32;12.90;68.50
14727;DHT22;7454;51.256;8.176;2022-09-16T16:26:58;12.90;68.60
14727;DHT22;7454;51.256;8.176;2022-09-16T16:29:24;13.00;68.70
14727;DHT22;7454;51.256;8.176;2022-09-16T16:32:23;12.90;68.70
14727;DHT22;7454;51.256;8.176;2022-09-16T16:34:42;12.90;68.60
14727;DHT22;7454;51.256;8.176;2022-09-16T16:37:10;12.90;68.60
14727;DHT22;7454;51.256;8.176;2022-09-16T16:39:37;12.90;68.60
14727;DHT22;7454;51.256;8.176;2022-09-16T16:42:03;12.80;68.70
14727;DHT22;7454;51.256;8.176;2022-09-16T16:44:33;12.80;68.70
14727;DHT22;7454;51.256;8.176;2022-09-16T16:46:59;12.70;68.70
14727;DHT22;7454;51.256;8.176;2022-09-16T16:49:25;12.70;68.70
14727;DHT22;7454;51.256;8.176;2022-09-16T16:51:51;12.80;68.80
14727;DHT22;7454;51.256;8.176;2022-09-16T16:54:19;12.90;68.90
14727;DHT22;7454;51.256;8.176;2022-09-16T16:56:46;12.60;68.80
14727;DHT22;7454;51.256;8.176;2022-09-16T16:59:12;12.60;68.90
14727;DHT22;7454;51.256;8.176;2022-09-16T17:01:38;12.60;68.90
14727;DHT22;7454;51.256;8.176;2022-09-16T17:04:05;12.50;69.00
14727;DHT22;7454;51.256;8.176;2022-09-16T17:06:31;12.40;68.90
14727;DHT22;7454;51.256;8.176;2022-09-16T17:08:59;12.40;69.00
14727;DHT22;7454;51.256;8.176;2022-09-16T17:11:25;12.20;68.90
14727;DHT22;7454;51.256;8.176;2022-09-16T17:13:51;12.30;69.00
14727;DHT22;7454;51.256;8.176;2022-09-16T17:16:22;12.30;69.10
14727;DHT22;7454;51.256;8.176;2022-09-16T17:18:49;12.30;69.10
14727;DHT22;7454;51.256;8.176;2022-09-16T17:23:42;12.20;69.10
14727;DHT22;7454;51.256;8.176;2022-09-16T17:26:08;12.20;69.20
14727;DHT22;7454;51.256;8.176;2022-09-16T17:28:34;12.20;69.20
14727;DHT22;7454;51.256;8.176;2022-09-16T17:31:06;12.20;69.10
14727;DHT22;7454;51.256;8.176;2022-09-16T17:33:35;12.20;69.20
14727;DHT22;7454;51.256;8.176;2022-09-16T17:36:03;12.10;69.10
14727;DHT22;7454;51.256;8.176;2022-09-16T17:38:29;12.10;69.10
14727;DHT22;7454;51.256;8.176;2022-09-16T17:41:03;12.00;69.20
14727;DHT22;7454;51.256;8.176;2022-09-16T17:43:30;12.00;69.10
14727;DHT22;7454;51.256;8.176;2022-09-16T17:45:57;12.00;69.20
14727;DHT22;7454;51.256;8.176;2022-09-16T17:48:23;12.00;69.00
14727;DHT22;7454;51.256;8.176;2022-09-16T17:50:49;11.90;68.90
14727;DHT22;7454;51.256;8.176;2022-09-16T17:53:15;11.90;68.80
14727;DHT22;7454;51.256;8.176;2022-09-16T17:55:41;11.80;68.70
14727;DHT22;7454;51.256;8.176;2022-09-16T17:58:06;11.80;68.70
14727;DHT22;7454;51.256;8.176;2022-09-16T18:00:32;11.80;68.50
14727;DHT22;7454;51.256;8.176;2022-09-16T18:02:58;11.80;68.50
14727;DHT22;7454;51.256;8.176;2022-09-16T18:05:24;11.80;68.40
14727;DHT22;7454;51.256;8.176;2022-09-16T18:07:49;11.80;68.30
14727;DHT22;7454;51.256;8.176;2022-09-16T18:10:15;11.80;68.20
14727;DHT22;7454;51.256;8.176;2022-09-16T18:12:41;11.80;68.30
14727;DHT22;7454;51.256;8.176;2022-09-16T18:15:07;11.70;68.20
14727;DHT22;7454;51.256;8.176;2022-09-16T18:17:33;11.70;68.30
14727;DHT22;7454;51.256;8.176;2022-09-16T18:19:59;11.80;68.40
14727;DHT22;7454;51.256;8.176;2022-09-16T18:22:24;11.60;68.40
14727;DHT22;7454;51.256;8.176;2022-09-16T18:24:50;11.70;68.50
14727;DHT22;7454;51.256;8.176;2022-09-16T18:27:15;11.60;68.50
14727;DHT22;7454;51.256;8.176;2022-09-16T18:29:41;11.60;68.50
14727;DHT22;7454;51.256;8.176;2022-09-16T18:32:07;11.60;68.50
14727;DHT22;7454;51.256;8.176;2022-09-16T18:34:33;11.60;68.60
14727;DHT22;7454;51.256;8.176;2022-09-16T18:36:59;11.60;68.50
14727;DHT22;7454;51.256;8.176;2022-09-16T18:39:24;11.60;68.50
14727;DHT22;7454;51.256;8.176;2022-09-16T18:41:50;11.60;68.60
14727;DHT22;7454;51.256;8.176;2022-09-16T18:44:19;11.50;68.50
14727;DHT22;7454;51.256;8.176;2022-09-16T18:46:48;11.50;68.60